sensor_id;sensor_type;location;lat;lon;timestamp;P1;durP1;ratioP1;P2;durP2;ratioP2
11823;SDS011;5969;50.780;7.726;2022-10-26T00:02:06;9.00;;;4.10;;
11823;SDS011;5969;50.780;7.726;2022-10-26T00:04:33;10.43;;;4.35;;
11823;SDS011;5969;50.780;7.726;2022-10-26T00:07:00;6.38;;;4.20;;
11823;SDS011;5969;50.780;7.726;2022-10-26T00:09:28;7.00;;;3.95;;
11823;SDS011;5969;50.780;7.726;2022-10-26T00:11:55;7.82;;;4.40;;
11823;SDS011;5969;50.780;7.726;2022-10-26T00:14:22;7.20;;;4.50;;
11823;SDS011;5969;50.780;7.726;2022-10-26T00:16:49;7.63;;;3.90;;
11823;SDS011;5969;50.780;7.726;2022-10-26T00:19:16;12.23;;;4.30;;
11823;SDS011;5969;50.780;7.726;2022-10-26T00:21:43;10.73;;;4.68;;
11823;SDS011;5969;50.780;7.726;2022-10-26T00:24:09;10.18;;;4.03;;
11823;SDS011;5969;50.780;7.726;2022-10-26T00:26:38;9.38;;;4.55;;
11823;SDS011;5969;50.780;7.726;2022-10-26T00:29:05;11.32;;;4.10;;
11823;SDS011;5969;50.780;7.726;2022-10-26T00:31:32;6.43;;;4.28;;
11823;SDS011;5969;50.780;7.726;2022-10-26T00:33:59;8.77;;;4.47;;
11823;SDS011;5969;50.780;7.726;2022-10-26T00:36:26;9.52;;;4.68;;
11823;SDS011;5969;50.780;7.726;2022-10-26T00:38:53;10.30;;;4.85;;
11823;SDS011;5969;50.780;7.726;2022-10-26T00:41:22;7.85;;;3.97;;
11823;SDS011;5969;50.780;7.726;2022-10-26T00:43:52;6.82;;;4.35;;
11823;SDS011;5969;50.780;7.726;2022-10-26T00:46:20;7.25;;;4.20;;
11823;SDS011;5969;50.780;7.726;2022-10-26T00:48:51;10.75;;;4.72;;
11823;SDS011;5969;50.780;7.726;2022-10-26T00:51:22;7.97;;;4.35;;
11823;SDS011;5969;50.780;7.726;2022-10-26T00:53:54;15.00;;;4.35;;
11823;SDS011;5969;50.780;7.726;2022-10-26T00:56:21;11.15;;;4.43;;
11823;SDS011;5969;50.780;7.726;2022-10-26T00:58:49;9.32;;;4.20;;
11823;SDS011;5969;50.780;7.726;2022-10-26T01:01:18;7.47;;;4.35;;
11823;SDS011;5969;50.780;7.726;2022-10-26T01:03:45;7.30;;;4.57;;
11823;SDS011;5969;50.780;7.726;2022-10-26T01:06:12;10.02;;;3.63;;
11823;SDS011;5969;50.780;7.726;2022-10-26T01:08:40;4.63;;;2.60;;
11823;SDS011;5969;50.780;7.726;2022-10-26T01:11:08;10.55;;;3.38;;
11823;SDS011;5969;50.780;7.726;2022-10-26T01:13:35;5.18;;;2.92;;
11823;SDS011;5969;50.780;7.726;2022-10-26T01:16:06;4.68;;;2.83;;
11823;SDS011;5969;50.780;7.726;2022-10-26T01:18:50;6.97;;;3.33;;
11823;SDS011;5969;50.780;7.726;2022-10-26T01:24:22;11.90;;;4.15;;
11823;SDS011;5969;50.780;7.726;2022-10-26T01:27:23;7.88;;;4.35;;
11823;SDS011;5969;50.780;7.726;2022-10-26T01:30:09;6.78;;;4.15;;
11823;SDS011;5969;50.780;7.726;2022-10-26T01:33:07;9.65;;;4.53;;
11823;SDS011;5969;50.780;7.726;2022-10-26T01:35:49;11.48;;;4.43;;
11823;SDS011;5969;50.780;7.726;2022-10-26T01:38:22;10.18;;;3.30;;
11823;SDS011;5969;50.780;7.726;2022-10-26T01:40:53;5.70;;;3.80;;
11823;SDS011;5969;50.780;7.726;2022-10-26T01:43:25;9.73;;;4.13;;
11823;SDS011;5969;50.780;7.726;2022-10-26T01:45:57;9.30;;;4.53;;
11823;SDS011;5969;50.780;7.726;2022-10-26T01:48:24;8.48;;;4.07;;
11823;SDS011;5969;50.780;7.726;2022-10-26T01:50:52;6.40;;;4.88;;
11823;SDS011;5969;50.780;7.726;2022-10-26T01:53:21;5.38;;;4.05;;
11823;SDS011;5969;50.780;7.726;2022-10-26T01:55:50;6.07;;;3.88;;
11823;SDS011;5969;50.780;7.726;2022-10-26T01:58:22;11.80;;;4.60;;
11823;SDS011;5969;50.780;7.726;2022-10-26T02:01:32;10.48;;;4.65;;
11823;SDS011;5969;50.780;7.726;2022-10-26T02:04:12;7.28;;;4.28;;
11823;SDS011;5969;50.780;7.726;2022-10-26T02:06:48;15.60;;;4.90;;
11823;SDS011;5969;50.780;7.726;2022-10-26T02:09:23;6.47;;;4.35;;
11823;SDS011;5969;50.780;7.726;2022-10-26T02:11:57;10.98;;;4.45;;
11823;SDS011;5969;50.780;7.726;2022-10-26T02:14:29;7.50;;;3.78;;
11823;SDS011;5969;50.780;7.726;2022-10-26T02:17:03;5.93;;;3.67;;
11823;SDS011;5969;50.780;7.726;2022-10-26T02:19:35;8.40;;;4.68;;
11823;SDS011;5969;50.780;7.726;2022-10-26T02:22:09;12.32;;;4.63;;
11823;SDS011;5969;50.780;7.726;2022-10-26T02:24:40;7.88;;;4.15;;
11823;SDS011;5969;50.780;7.726;2022-10-26T02:27:10;8.00;;;4.13;;
11823;SDS011;5969;50.780;7.726;2022-10-26T02:29:41;8.85;;;4.10;;
11823;SDS011;5969;50.780;7.726;2022-10-26T02:32:10;6.35;;;3.78;;
11823;SDS011;5969;50.780;7.726;2022-10-26T02:34:38;6.57;;;3.50;;
11823;SDS011;5969;50.780;7.726;2022-10-26T02:37:09;7.47;;;4.57;;
11823;SDS011;5969;50.780;7.726;2022-10-26T02:39:37;7.65;;;4.15;;
11823;SDS011;5969;50.780;7.726;2022-10-26T02:42:06;8.57;;;4.05;;
11823;SDS011;5969;50.780;7.726;2022-10-26T02:44:35;6.68;;;4.05;;
11823;SDS011;5969;50.780;7.726;2022-10-26T02:47:07;7.15;;;3.67;;
11823;SDS011;5969;50.780;7.726;2022-10-26T02:49:36;12.18;;;4.43;;
11823;SDS011;5969;50.780;7.726;2022-10-26T02:52:03;8.63;;;4.07;;
11823;SDS011;5969;50.780;7.726;2022-10-26T02:54:39;9.43;;;3.75;;
11823;SDS011;5969;50.780;7.726;2022-10-26T02:57:14;7.40;;;3.70;;
11823;SDS011;5969;50.780;7.726;2022-10-26T02:59:44;6.25;;;3.63;;
11823;SDS011;5969;50.780;7.726;2022-10-26T03:02:12;8.63;;;3.83;;
11823;SDS011;5969;50.780;7.726;2022-10-26T03:04:42;7.65;;;3.95;;
11823;SDS011;5969;50.780;7.726;2022-10-26T03:07:09;10.63;;;4.38;;
11823;SDS011;5969;50.780;7.726;2022-10-26T03:09:36;9.63;;;3.80;;
11823;SDS011;5969;50.780;7.726;2022-10-26T03:12:03;9.32;;;3.92;;
11823;SDS011;5969;50.780;7.726;2022-10-26T03:14:30;7.50;;;3.65;;
11823;SDS011;5969;50.780;7.726;2022-10-26T03:16:57;6.43;;;3.72;;
11823;SDS011;5969;50.780;7.726;2022-10-26T03:19:24;6.15;;;3.47;;
11823;SDS011;5969;50.780;7.726;2022-10-26T03:21:52;4.45;;;3.75;;
11823;SDS011;5969;50.780;7.726;2022-10-26T03:24:19;7.05;;;3.95;;
11823;SDS011;5969;50.780;7.726;2022-10-26T03:26:46;8.93;;;4.05;;
11823;SDS011;5969;50.780;7.726;2022-10-26T03:29:12;13.23;;;3.65;;
11823;SDS011;5969;50.780;7.726;2022-10-26T03:31:39;6.50;;;4.22;;
11823;SDS011;5969;50.780;7.726;2022-10-26T03:34:06;12.63;;;4.38;;
11823;SDS011;5969;50.780;7.726;2022-10-26T03:36:33;6.20;;;3.35;;
11823;SDS011;5969;50.780;7.726;2022-10-26T03:39:01;7.75;;;3.28;;
11823;SDS011;5969;50.780;7.726;2022-10-26T03:41:28;6.18;;;3.30;;
11823;SDS011;5969;50.780;7.726;2022-10-26T03:43:54;6.40;;;3.58;;
11823;SDS011;5969;50.780;7.726;2022-10-26T03:46:21;10.25;;;4.72;;
11823;SDS011;5969;50.780;7.726;2022-10-26T03:48:48;8.57;;;3.70;;
11823;SDS011;5969;50.780;7.726;2022-10-26T03:51:15;9.15;;;3.55;;
11823;SDS011;5969;50.780;7.726;2022-10-26T03:53:41;5.78;;;2.90;;
11823;SDS011;5969;50.780;7.726;2022-10-26T03:56:10;14.30;;;3.78;;
11823;SDS011;5969;50.780;7.726;2022-10-26T03:58:36;6.40;;;2.95;;
11823;SDS011;5969;50.780;7.726;2022-10-26T04:01:03;9.18;;;4.05;;
11823;SDS011;5969;50.780;7.726;2022-10-26T04:03:30;5.57;;;2.67;;
11823;SDS011;5969;50.780;7.726;2022-10-26T04:05:58;8.70;;;3.15;;
11823;SDS011;5969;50.780;7.726;2022-10-26T04:08:25;7.88;;;2.70;;
11823;SDS011;5969;50.780;7.726;2022-10-26T04:10:52;8.60;;;2.35;;
11823;SDS011;5969;50.780;7.726;2022-10-26T04:13:20;8.98;;;2.55;;
11823;SDS011;5969;50.780;7.726;2022-10-26T04:15:47;5.45;;;2.75;;
11823;SDS011;5969;50.780;7.726;2022-10-26T04:18:14;12.27;;;3.55;;
11823;SDS011;5969;50.780;7.726;2022-10-26T04:20:41;11.20;;;2.80;;
11823;SDS011;5969;50.780;7.726;2022-10-26T04:23:10;9.18;;;3.10;;
11823;SDS011;5969;50.780;7.726;2022-10-26T04:25:38;7.45;;;3.03;;
11823;SDS011;5969;50.780;7.726;2022-10-26T04:28:05;8.55;;;3.08;;
11823;SDS011;5969;50.780;7.726;2022-10-26T04:30:34;7.22;;;3.20;;
11823;SDS011;5969;50.780;7.726;2022-10-26T04:33:02;4.93;;;3.08;;
11823;SDS011;5969;50.780;7.726;2022-10-26T04:35:29;8.88;;;2.83;;
11823;SDS011;5969;50.780;7.726;2022-10-26T04:37:57;4.60;;;2.60;;
11823;SDS011;5969;50.780;7.726;2022-10-26T04:40:24;8.13;;;2.03;;
11823;SDS011;5969;50.780;7.726;2022-10-26T04:42:51;4.50;;;2.10;;
11823;SDS011;5969;50.780;7.726;2022-10-26T04:45:18;5.38;;;1.50;;
11823;SDS011;5969;50.780;7.726;2022-10-26T04:47:46;4.40;;;2.10;;
11823;SDS011;5969;50.780;7.726;2022-10-26T04:50:23;6.70;;;1.98;;
11823;SDS011;5969;50.780;7.726;2022-10-26T04:52:51;4.43;;;1.80;;
11823;SDS011;5969;50.780;7.726;2022-10-26T04:55:18;3.08;;;1.50;;
11823;SDS011;5969;50.780;7.726;2022-10-26T04:57:45;6.63;;;2.10;;
11823;SDS011;5969;50.780;7.726;2022-10-26T05:00:12;5.35;;;2.40;;
11823;SDS011;5969;50.780;7.726;2022-10-26T05:02:39;5.70;;;2.13;;
11823;SDS011;5969;50.780;7.726;2022-10-26T05:05:07;8.75;;;3.22;;
11823;SDS011;5969;50.780;7.726;2022-10-26T05:07:34;10.05;;;2.83;;
11823;SDS011;5969;50.780;7.726;2022-10-26T05:10:01;4.25;;;2.90;;
11823;SDS011;5969;50.780;7.726;2022-10-26T05:12:28;7.07;;;2.83;;
11823;SDS011;5969;50.780;7.726;2022-10-26T05:14:55;7.57;;;2.92;;
11823;SDS011;5969;50.780;7.726;2022-10-26T05:17:23;5.78;;;2.38;;
11823;SDS011;5969;50.780;7.726;2022-10-26T05:19:50;8.85;;;2.33;;
11823;SDS011;5969;50.780;7.726;2022-10-26T05:22:21;3.42;;;2.03;;
11823;SDS011;5969;50.780;7.726;2022-10-26T05:24:47;4.45;;;2.85;;
11823;SDS011;5969;50.780;7.726;2022-10-26T05:27:14;6.00;;;2.70;;
11823;SDS011;5969;50.780;7.726;2022-10-26T05:29:41;6.35;;;2.47;;
11823;SDS011;5969;50.780;7.726;2022-10-26T05:32:08;6.55;;;3.00;;
11823;SDS011;5969;50.780;7.726;2022-10-26T05:34:35;3.83;;;2.28;;
11823;SDS011;5969;50.780;7.726;2022-10-26T05:37:02;5.30;;;2.58;;
11823;SDS011;5969;50.780;7.726;2022-10-26T05:39:30;8.88;;;3.10;;
11823;SDS011;5969;50.780;7.726;2022-10-26T05:41:57;4.22;;;2.40;;
11823;SDS011;5969;50.780;7.726;2022-10-26T05:44:24;2.33;;;1.92;;
11823;SDS011;5969;50.780;7.726;2022-10-26T05:46:51;4.72;;;2.33;;
11823;SDS011;5969;50.780;7.726;2022-10-26T05:49:18;4.85;;;2.10;;
11823;SDS011;5969;50.780;7.726;2022-10-26T05:51:45;2.92;;;2.30;;
11823;SDS011;5969;50.780;7.726;2022-10-26T05:54:11;5.25;;;2.20;;
11823;SDS011;5969;50.780;7.726;2022-10-26T05:56:40;5.68;;;2.55;;
11823;SDS011;5969;50.780;7.726;2022-10-26T05:59:09;6.65;;;2.45;;
11823;SDS011;5969;50.780;7.726;2022-10-26T06:01:42;8.50;;;2.30;;
11823;SDS011;5969;50.780;7.726;2022-10-26T06:04:23;4.53;;;2.17;;
11823;SDS011;5969;50.780;7.726;2022-10-26T06:06:56;4.00;;;2.53;;
11823;SDS011;5969;50.780;7.726;2022-10-26T06:09:24;4.93;;;2.53;;
11823;SDS011;5969;50.780;7.726;2022-10-26T06:11:56;3.83;;;2.30;;
11823;SDS011;5969;50.780;7.726;2022-10-26T06:14:23;4.18;;;2.67;;
11823;SDS011;5969;50.780;7.726;2022-10-26T06:16:55;5.35;;;2.30;;
11823;SDS011;5969;50.780;7.726;2022-10-26T06:19:32;6.03;;;2.53;;
11823;SDS011;5969;50.780;7.726;2022-10-26T06:22:14;5.85;;;2.40;;
11823;SDS011;5969;50.780;7.726;2022-10-26T06:24:55;10.27;;;3.03;;
11823;SDS011;5969;50.780;7.726;2022-10-26T06:27:32;4.90;;;2.20;;
11823;SDS011;5969;50.780;7.726;2022-10-26T06:30:06;5.35;;;3.15;;
11823;SDS011;5969;50.780;7.726;2022-10-26T06:32:35;9.32;;;3.83;;
11823;SDS011;5969;50.780;7.726;2022-10-26T06:35:13;6.88;;;3.10;;
11823;SDS011;5969;50.780;7.726;2022-10-26T06:37:52;8.73;;;2.88;;
11823;SDS011;5969;50.780;7.726;2022-10-26T06:40:23;4.43;;;2.80;;
11823;SDS011;5969;50.780;7.726;2022-10-26T06:42:53;6.43;;;3.00;;
11823;SDS011;5969;50.780;7.726;2022-10-26T06:45:20;6.38;;;2.90;;
11823;SDS011;5969;50.780;7.726;2022-10-26T06:47:49;7.20;;;2.97;;
11823;SDS011;5969;50.780;7.726;2022-10-26T06:50:26;5.70;;;2.88;;
11823;SDS011;5969;50.780;7.726;2022-10-26T06:53:04;5.45;;;3.17;;
11823;SDS011;5969;50.780;7.726;2022-10-26T06:55:39;4.88;;;2.88;;
11823;SDS011;5969;50.780;7.726;2022-10-26T06:58:10;6.70;;;2.78;;
11823;SDS011;5969;50.780;7.726;2022-10-26T07:00:41;4.75;;;2.80;;
11823;SDS011;5969;50.780;7.726;2022-10-26T07:03:10;3.67;;;2.20;;
11823;SDS011;5969;50.780;7.726;2022-10-26T07:05:37;5.40;;;3.28;;
11823;SDS011;5969;50.780;7.726;2022-10-26T07:08:03;4.63;;;2.28;;
11823;SDS011;5969;50.780;7.726;2022-10-26T07:10:31;3.60;;;2.30;;
11823;SDS011;5969;50.780;7.726;2022-10-26T07:12:59;5.28;;;2.40;;
11823;SDS011;5969;50.780;7.726;2022-10-26T07:15:27;5.63;;;2.92;;
11823;SDS011;5969;50.780;7.726;2022-10-26T07:17:54;7.00;;;3.33;;
11823;SDS011;5969;50.780;7.726;2022-10-26T07:20:21;4.07;;;2.40;;
11823;SDS011;5969;50.780;7.726;2022-10-26T07:22:51;4.40;;;2.80;;
11823;SDS011;5969;50.780;7.726;2022-10-26T07:25:18;5.53;;;2.30;;
11823;SDS011;5969;50.780;7.726;2022-10-26T07:27:45;4.50;;;1.92;;
11823;SDS011;5969;50.780;7.726;2022-10-26T07:30:12;5.28;;;2.00;;
11823;SDS011;5969;50.780;7.726;2022-10-26T07:32:40;6.57;;;2.45;;
11823;SDS011;5969;50.780;7.726;2022-10-26T07:35:08;5.57;;;2.47;;
11823;SDS011;5969;50.780;7.726;2022-10-26T07:37:34;6.75;;;2.75;;
11823;SDS011;5969;50.780;7.726;2022-10-26T07:40:01;4.00;;;1.83;;
11823;SDS011;5969;50.780;7.726;2022-10-26T07:42:29;3.63;;;1.80;;
11823;SDS011;5969;50.780;7.726;2022-10-26T07:44:56;6.28;;;2.10;;
11823;SDS011;5969;50.780;7.726;2022-10-26T07:47:22;3.72;;;2.00;;
11823;SDS011;5969;50.780;7.726;2022-10-26T07:49:51;5.93;;;2.08;;
11823;SDS011;5969;50.780;7.726;2022-10-26T07:52:17;5.10;;;1.67;;
11823;SDS011;5969;50.780;7.726;2022-10-26T07:54:44;5.00;;;2.20;;
11823;SDS011;5969;50.780;7.726;2022-10-26T07:57:11;2.50;;;1.83;;
11823;SDS011;5969;50.780;7.726;2022-10-26T07:59:38;4.57;;;1.85;;
11823;SDS011;5969;50.780;7.726;2022-10-26T08:02:04;6.18;;;1.98;;
11823;SDS011;5969;50.780;7.726;2022-10-26T08:04:31;6.32;;;1.92;;
11823;SDS011;5969;50.780;7.726;2022-10-26T08:06:59;5.38;;;2.00;;
11823;SDS011;5969;50.780;7.726;2022-10-26T08:09:26;6.50;;;1.80;;
11823;SDS011;5969;50.780;7.726;2022-10-26T08:11:53;3.33;;;1.67;;
11823;SDS011;5969;50.780;7.726;2022-10-26T08:14:20;3.35;;;1.50;;
11823;SDS011;5969;50.780;7.726;2022-10-26T08:16:46;4.22;;;2.00;;
11823;SDS011;5969;50.780;7.726;2022-10-26T08:19:16;3.08;;;1.80;;
11823;SDS011;5969;50.780;7.726;2022-10-26T08:21:43;5.15;;;2.20;;
11823;SDS011;5969;50.780;7.726;2022-10-26T08:24:11;5.85;;;1.85;;
11823;SDS011;5969;50.780;7.726;2022-10-26T08:26:38;9.05;;;2.20;;
11823;SDS011;5969;50.780;7.726;2022-10-26T08:29:04;9.27;;;1.92;;
11823;SDS011;5969;50.780;7.726;2022-10-26T08:31:31;5.65;;;1.88;;
11823;SDS011;5969;50.780;7.726;2022-10-26T08:33:59;2.92;;;1.80;;
11823;SDS011;5969;50.780;7.726;2022-10-26T08:36:28;7.97;;;1.92;;
11823;SDS011;5969;50.780;7.726;2022-10-26T08:38:55;4.35;;;1.98;;
11823;SDS011;5969;50.780;7.726;2022-10-26T08:41:26;3.58;;;2.00;;
11823;SDS011;5969;50.780;7.726;2022-10-26T08:44:00;4.57;;;1.90;;
11823;SDS011;5969;50.780;7.726;2022-10-26T08:46:36;4.05;;;1.95;;
11823;SDS011;5969;50.780;7.726;2022-10-26T08:49:10;3.15;;;1.83;;
11823;SDS011;5969;50.780;7.726;2022-10-26T08:51:45;4.13;;;2.28;;
11823;SDS011;5969;50.780;7.726;2022-10-26T08:54:15;5.10;;;2.22;;
11823;SDS011;5969;50.780;7.726;2022-10-26T08:56:48;5.80;;;2.33;;
11823;SDS011;5969;50.780;7.726;2022-10-26T08:59:20;5.43;;;1.98;;
11823;SDS011;5969;50.780;7.726;2022-10-26T09:01:54;7.43;;;2.20;;
11823;SDS011;5969;50.780;7.726;2022-10-26T09:04:24;6.35;;;2.47;;
11823;SDS011;5969;50.780;7.726;2022-10-26T09:06:54;8.13;;;2.08;;
11823;SDS011;5969;50.780;7.726;2022-10-26T09:09:27;5.38;;;1.92;;
11823;SDS011;5969;50.780;7.726;2022-10-26T09:12:08;6.43;;;2.35;;
11823;SDS011;5969;50.780;7.726;2022-10-26T09:14:45;6.38;;;2.53;;
11823;SDS011;5969;50.780;7.726;2022-10-26T09:17:22;4.95;;;2.40;;
11823;SDS011;5969;50.780;7.726;2022-10-26T09:20:03;4.50;;;2.00;;
11823;SDS011;5969;50.780;7.726;2022-10-26T09:22:40;4.85;;;2.15;;
11823;SDS011;5969;50.780;7.726;2022-10-26T09:25:15;7.60;;;2.35;;
11823;SDS011;5969;50.780;7.726;2022-10-26T09:27:46;5.68;;;2.45;;
11823;SDS011;5969;50.780;7.726;2022-10-26T09:30:16;6.78;;;2.30;;
11823;SDS011;5969;50.780;7.726;2022-10-26T09:32:45;5.95;;;2.70;;
11823;SDS011;5969;50.780;7.726;2022-10-26T09:35:14;7.47;;;2.20;;
11823;SDS011;5969;50.780;7.726;2022-10-26T09:37:45;9.63;;;2.25;;
11823;SDS011;5969;50.780;7.726;2022-10-26T09:40:17;4.95;;;2.35;;
11823;SDS011;5969;50.780;7.726;2022-10-26T09:42:50;3.92;;;2.22;;
11823;SDS011;5969;50.780;7.726;2022-10-26T09:45:24;7.72;;;2.45;;
11823;SDS011;5969;50.780;7.726;2022-10-26T09:47:55;9.00;;;2.78;;
11823;SDS011;5969;50.780;7.726;2022-10-26T09:50:27;5.50;;;2.42;;
11823;SDS011;5969;50.780;7.726;2022-10-26T09:52:58;6.03;;;2.42;;
11823;SDS011;5969;50.780;7.726;2022-10-26T09:55:25;5.28;;;2.30;;
11823;SDS011;5969;50.780;7.726;2022-10-26T09:57:55;3.90;;;2.28;;
11823;SDS011;5969;50.780;7.726;2022-10-26T10:00:26;10.93;;;2.20;;
11823;SDS011;5969;50.780;7.726;2022-10-26T10:02:54;4.85;;;2.22;;
11823;SDS011;5969;50.780;7.726;2022-10-26T10:05:25;4.60;;;2.28;;
11823;SDS011;5969;50.780;7.726;2022-10-26T10:08:12;8.73;;;3.08;;
11823;SDS011;5969;50.780;7.726;2022-10-26T10:10:54;6.68;;;2.20;;
11823;SDS011;5969;50.780;7.726;2022-10-26T10:13:24;5.30;;;2.50;;
11823;SDS011;5969;50.780;7.726;2022-10-26T10:15:54;6.40;;;2.40;;
11823;SDS011;5969;50.780;7.726;2022-10-26T10:18:23;7.03;;;2.25;;
11823;SDS011;5969;50.780;7.726;2022-10-26T10:20:50;6.82;;;2.50;;
11823;SDS011;5969;50.780;7.726;2022-10-26T10:23:24;4.00;;;2.00;;
11823;SDS011;5969;50.780;7.726;2022-10-26T10:26:03;8.35;;;2.83;;
11823;SDS011;5969;50.780;7.726;2022-10-26T10:28:33;5.53;;;2.70;;
11823;SDS011;5969;50.780;7.726;2022-10-26T10:31:01;7.90;;;2.65;;
11823;SDS011;5969;50.780;7.726;2022-10-26T10:33:31;7.40;;;2.30;;
11823;SDS011;5969;50.780;7.726;2022-10-26T10:35:59;5.50;;;2.45;;
11823;SDS011;5969;50.780;7.726;2022-10-26T10:38:27;4.97;;;2.30;;
11823;SDS011;5969;50.780;7.726;2022-10-26T10:40:54;9.07;;;2.42;;
11823;SDS011;5969;50.780;7.726;2022-10-26T10:43:23;7.60;;;2.30;;
11823;SDS011;5969;50.780;7.726;2022-10-26T10:45:53;4.68;;;2.35;;
11823;SDS011;5969;50.780;7.726;2022-10-26T10:48:23;5.20;;;2.17;;
11823;SDS011;5969;50.780;7.726;2022-10-26T10:50:53;6.82;;;2.30;;
11823;SDS011;5969;50.780;7.726;2022-10-26T10:53:22;6.35;;;2.40;;
11823;SDS011;5969;50.780;7.726;2022-10-26T10:56:10;8.75;;;2.30;;
11823;SDS011;5969;50.780;7.726;2022-10-26T10:58:47;5.18;;;2.80;;
11823;SDS011;5969;50.780;7.726;2022-10-26T11:01:22;5.10;;;2.50;;
11823;SDS011;5969;50.780;7.726;2022-10-26T11:04:00;9.73;;;2.70;;
11823;SDS011;5969;50.780;7.726;2022-10-26T11:06:38;5.00;;;2.47;;
11823;SDS011;5969;50.780;7.726;2022-10-26T11:09:08;5.53;;;2.50;;
11823;SDS011;5969;50.780;7.726;2022-10-26T11:11:39;6.57;;;2.22;;
11823;SDS011;5969;50.780;7.726;2022-10-26T11:14:10;6.40;;;2.58;;
11823;SDS011;5969;50.780;7.726;2022-10-26T11:16:41;7.68;;;2.65;;
11823;SDS011;5969;50.780;7.726;2022-10-26T11:19:15;8.05;;;2.50;;
11823;SDS011;5969;50.780;7.726;2022-10-26T11:21:47;8.13;;;2.28;;
11823;SDS011;5969;50.780;7.726;2022-10-26T11:24:17;5.90;;;2.47;;
11823;SDS011;5969;50.780;7.726;2022-10-26T11:26:49;5.85;;;2.53;;
11823;SDS011;5969;50.780;7.726;2022-10-26T11:29:25;5.78;;;2.25;;
11823;SDS011;5969;50.780;7.726;2022-10-26T11:32:00;7.05;;;2.20;;
11823;SDS011;5969;50.780;7.726;2022-10-26T11:34:35;6.43;;;2.25;;
11823;SDS011;5969;50.780;7.726;2022-10-26T11:37:08;5.25;;;2.20;;
11823;SDS011;5969;50.780;7.726;2022-10-26T11:39:41;7.18;;;2.40;;
11823;SDS011;5969;50.780;7.726;2022-10-26T11:42:14;6.70;;;2.33;;
11823;SDS011;5969;50.780;7.726;2022-10-26T11:44:47;7.68;;;2.15;;
11823;SDS011;5969;50.780;7.726;2022-10-26T11:47:21;7.95;;;2.20;;
11823;SDS011;5969;50.780;7.726;2022-10-26T11:49:52;8.80;;;2.45;;
11823;SDS011;5969;50.780;7.726;2022-10-26T11:52:27;7.85;;;2.50;;
11823;SDS011;5969;50.780;7.726;2022-10-26T11:54:59;7.55;;;2.00;;
11823;SDS011;5969;50.780;7.726;2022-10-26T11:57:28;4.53;;;1.90;;
11823;SDS011;5969;50.780;7.726;2022-10-26T11:59:58;4.78;;;2.00;;
11823;SDS011;5969;50.780;7.726;2022-10-26T12:02:29;5.65;;;2.05;;
11823;SDS011;5969;50.780;7.726;2022-10-26T12:05:04;9.02;;;2.03;;
11823;SDS011;5969;50.780;7.726;2022-10-26T12:07:37;7.10;;;2.50;;
11823;SDS011;5969;50.780;7.726;2022-10-26T12:10:06;3.67;;;2.17;;
11823;SDS011;5969;50.780;7.726;2022-10-26T12:12:37;7.80;;;2.10;;
11823;SDS011;5969;50.780;7.726;2022-10-26T12:15:13;5.55;;;1.90;;
11823;SDS011;5969;50.780;7.726;2022-10-26T12:17:48;4.85;;;1.98;;
11823;SDS011;5969;50.780;7.726;2022-10-26T12:23:17;7.18;;;2.10;;
11823;SDS011;5969;50.780;7.726;2022-10-26T12:25:45;4.63;;;1.90;;
11823;SDS011;5969;50.780;7.726;2022-10-26T12:34:09;7.75;;;1.83;;
11823;SDS011;5969;50.780;7.726;2022-10-26T12:36:46;7.90;;;2.15;;
11823;SDS011;5969;50.780;7.726;2022-10-26T12:39:27;5.63;;;2.08;;
11823;SDS011;5969;50.780;7.726;2022-10-26T12:41:56;5.30;;;2.03;;
11823;SDS011;5969;50.780;7.726;2022-10-26T12:44:30;7.53;;;1.63;;
11823;SDS011;5969;50.780;7.726;2022-10-26T12:46:58;5.43;;;1.60;;
11823;SDS011;5969;50.780;7.726;2022-10-26T12:55:22;5.60;;;1.67;;
11823;SDS011;5969;50.780;7.726;2022-10-26T12:58:26;6.05;;;1.55;;
11823;SDS011;5969;50.780;7.726;2022-10-26T13:01:20;5.00;;;1.67;;
11823;SDS011;5969;50.780;7.726;2022-10-26T13:04:21;4.65;;;1.70;;
11823;SDS011;5969;50.780;7.726;2022-10-26T13:07:17;6.80;;;1.45;;
11823;SDS011;5969;50.780;7.726;2022-10-26T13:09:49;4.50;;;1.50;;
11823;SDS011;5969;50.780;7.726;2022-10-26T13:12:23;9.05;;;1.95;;
11823;SDS011;5969;50.780;7.726;2022-10-26T13:14:54;3.53;;;1.90;;
11823;SDS011;5969;50.780;7.726;2022-10-26T13:17:27;6.53;;;1.75;;
11823;SDS011;5969;50.780;7.726;2022-10-26T13:19:56;5.35;;;1.73;;
11823;SDS011;5969;50.780;7.726;2022-10-26T13:22:25;4.97;;;1.40;;
11823;SDS011;5969;50.780;7.726;2022-10-26T13:24:54;5.90;;;1.58;;
11823;SDS011;5969;50.780;7.726;2022-10-26T13:27:41;4.18;;;1.63;;
11823;SDS011;5969;50.780;7.726;2022-10-26T13:35:57;5.93;;;1.70;;
11823;SDS011;5969;50.780;7.726;2022-10-26T13:38:28;4.38;;;1.40;;
11823;SDS011;5969;50.780;7.726;2022-10-26T13:41:03;4.28;;;1.55;;
11823;SDS011;5969;50.780;7.726;2022-10-26T13:43:33;3.78;;;1.55;;
11823;SDS011;5969;50.780;7.726;2022-10-26T13:46:02;3.30;;;1.02;;
11823;SDS011;5969;50.780;7.726;2022-10-26T13:48:35;7.03;;;1.92;;
11823;SDS011;5969;50.780;7.726;2022-10-26T13:51:09;4.72;;;1.30;;
11823;SDS011;5969;50.780;7.726;2022-10-26T13:53:42;3.25;;;1.40;;
11823;SDS011;5969;50.780;7.726;2022-10-26T13:56:16;2.40;;;1.55;;
11823;SDS011;5969;50.780;7.726;2022-10-26T13:58:51;8.25;;;1.63;;
11823;SDS011;5969;50.780;7.726;2022-10-26T14:01:24;4.63;;;1.40;;
11823;SDS011;5969;50.780;7.726;2022-10-26T14:03:52;5.90;;;1.52;;
11823;SDS011;5969;50.780;7.726;2022-10-26T14:06:21;4.50;;;1.40;;
11823;SDS011;5969;50.780;7.726;2022-10-26T14:08:53;6.70;;;1.45;;
11823;SDS011;5969;50.780;7.726;2022-10-26T14:11:27;3.15;;;1.40;;
11823;SDS011;5969;50.780;7.726;2022-10-26T14:13:57;3.00;;;1.55;;
11823;SDS011;5969;50.780;7.726;2022-10-26T14:16:26;7.00;;;1.92;;
11823;SDS011;5969;50.780;7.726;2022-10-26T14:18:55;2.83;;;1.50;;
11823;SDS011;5969;50.780;7.726;2022-10-26T14:21:22;7.85;;;1.60;;
11823;SDS011;5969;50.780;7.726;2022-10-26T14:23:50;3.80;;;1.67;;
11823;SDS011;5969;50.780;7.726;2022-10-26T14:26:20;4.55;;;1.70;;
11823;SDS011;5969;50.780;7.726;2022-10-26T14:28:51;4.93;;;1.48;;
11823;SDS011;5969;50.780;7.726;2022-10-26T14:31:20;4.45;;;1.88;;
11823;SDS011;5969;50.780;7.726;2022-10-26T14:33:50;6.50;;;1.73;;
11823;SDS011;5969;50.780;7.726;2022-10-26T14:36:18;6.00;;;1.83;;
11823;SDS011;5969;50.780;7.726;2022-10-26T14:38:48;5.40;;;1.55;;
11823;SDS011;5969;50.780;7.726;2022-10-26T14:41:22;8.05;;;1.90;;
11823;SDS011;5969;50.780;7.726;2022-10-26T14:43:51;11.27;;;2.30;;
11823;SDS011;5969;50.780;7.726;2022-10-26T14:46:21;6.18;;;2.00;;
11823;SDS011;5969;50.780;7.726;2022-10-26T14:48:50;4.72;;;1.75;;
11823;SDS011;5969;50.780;7.726;2022-10-26T14:51:19;3.40;;;1.63;;
11823;SDS011;5969;50.780;7.726;2022-10-26T14:53:47;9.13;;;1.90;;
11823;SDS011;5969;50.780;7.726;2022-10-26T14:56:17;10.55;;;2.10;;
11823;SDS011;5969;50.780;7.726;2022-10-26T14:58:48;3.53;;;1.88;;
11823;SDS011;5969;50.780;7.726;2022-10-26T15:01:24;3.92;;;1.60;;
11823;SDS011;5969;50.780;7.726;2022-10-26T15:03:56;5.97;;;1.60;;
11823;SDS011;5969;50.780;7.726;2022-10-26T15:06:31;7.15;;;1.83;;
11823;SDS011;5969;50.780;7.726;2022-10-26T15:09:04;3.10;;;1.60;;
11823;SDS011;5969;50.780;7.726;2022-10-26T15:11:32;6.72;;;1.95;;
11823;SDS011;5969;50.780;7.726;2022-10-26T15:14:00;5.57;;;1.67;;
11823;SDS011;5969;50.780;7.726;2022-10-26T15:16:30;6.15;;;1.70;;
11823;SDS011;5969;50.780;7.726;2022-10-26T15:19:05;10.00;;;2.10;;
11823;SDS011;5969;50.780;7.726;2022-10-26T15:21:34;5.95;;;1.85;;
11823;SDS011;5969;50.780;7.726;2022-10-26T15:24:10;4.90;;;1.77;;
11823;SDS011;5969;50.780;7.726;2022-10-26T15:26:45;5.80;;;1.50;;
11823;SDS011;5969;50.780;7.726;2022-10-26T15:32:17;7.10;;;2.10;;
11823;SDS011;5969;50.780;7.726;2022-10-26T15:35:04;6.03;;;1.90;;
11823;SDS011;5969;50.780;7.726;2022-10-26T15:37:52;8.10;;;1.83;;
11823;SDS011;5969;50.780;7.726;2022-10-26T15:40:21;5.78;;;1.77;;
11823;SDS011;5969;50.780;7.726;2022-10-26T15:42:49;12.18;;;1.98;;
11823;SDS011;5969;50.780;7.726;2022-10-26T15:45:18;3.75;;;1.83;;
11823;SDS011;5969;50.780;7.726;2022-10-26T15:47:49;4.05;;;1.90;;
11823;SDS011;5969;50.780;7.726;2022-10-26T15:50:21;9.52;;;2.13;;